Terminal Aerodrome Forecast
Issued by NWS

Home | Current Version | Previous Version | Text Only | Print | Product List | Glossary On
Versions: 1 2 3 4 5 6 7 8 9 10 11 12 13 14 15 16 17 18
000
FTUS41 KGYX 271729
TAFRKD
TAF
KRKD 271729Z 2718/2818 19010G17KT P6SM SCT250
     FM272300 22011G18KT 4SM BR BKN025
     FM280200 23009G16KT 1/2SM FG OVC002
     FM281300 21010KT 6SM HZ BKN007
     FM281600 21009KT 4SM HZ OVC015
      AMD LTD TO CLD VIS AND WIND=

USA.gov is the U.S. government's official web portal to all federal, state and local government web resources and services.